createdAt,value
2018-07-22T00:00:12.997Z,19.18
2018-07-22T00:02:46.647Z,19.21
2018-07-22T00:05:23.969Z,19.24
2018-07-22T00:07:58.972Z,19.22
2018-07-22T00:10:32.639Z,19.27
2018-07-22T00:13:06.458Z,19.28
2018-07-22T00:15:38.881Z,19.25
2018-07-22T00:18:12.340Z,19.24
2018-07-22T00:20:45.212Z,19.23
2018-07-22T00:23:17.831Z,19.24
2018-07-22T00:25:55.537Z,19.26
2018-07-22T00:28:29.064Z,19.21
2018-07-22T00:31:01.603Z,19.16
2018-07-22T00:33:35.213Z,19.08
2018-07-22T00:36:07.768Z,19.00
2018-07-22T00:38:41.561Z,18.89
2018-07-22T00:41:14.407Z,18.80
2018-07-22T00:43:48.724Z,18.72
2018-07-22T00:46:21.916Z,18.71
2018-07-22T00:48:57.999Z,18.66
2018-07-22T00:51:32.339Z,18.66
2018-07-22T00:54:05.968Z,18.65
2018-07-22T00:56:40.568Z,18.61
2018-07-22T00:59:14.667Z,18.69
2018-07-22T01:01:47.356Z,18.66
2018-07-22T01:04:21.103Z,18.61
2018-07-22T01:06:53.676Z,18.63
2018-07-22T01:09:25.978Z,18.53
2018-07-22T01:11:59.759Z,18.42
2018-07-22T01:14:34.572Z,18.31
2018-07-22T01:17:07.894Z,18.22
2018-07-22T01:19:41.245Z,18.20
2018-07-22T01:22:14.655Z,18.15
2018-07-22T01:24:48.859Z,18.16
2018-07-22T01:27:29.425Z,18.10
2018-07-22T01:30:10.631Z,18.11
2018-07-22T01:32:45.405Z,18.01
2018-07-22T01:35:19.800Z,17.87
2018-07-22T01:37:53.864Z,17.81
2018-07-22T01:40:27.348Z,17.71
2018-07-22T01:43:01.458Z,17.68
2018-07-22T01:45:34.982Z,17.63
2018-07-22T01:48:07.601Z,17.60
2018-07-22T01:50:41.360Z,17.56
2018-07-22T01:53:19.525Z,17.49
2018-07-22T01:55:54.765Z,17.53
2018-07-22T01:58:29.431Z,17.52
2018-07-22T02:01:02.124Z,17.46
2018-07-22T02:03:34.731Z,17.42
2018-07-22T02:06:10.767Z,17.47
2018-07-22T02:08:45.120Z,17.48
2018-07-22T02:11:18.696Z,17.51
2018-07-22T02:13:57.295Z,17.55
2018-07-22T02:16:29.854Z,17.54
2018-07-22T02:19:04.118Z,17.48
2018-07-22T02:21:37.200Z,17.43
2018-07-22T02:24:10.510Z,17.35
2018-07-22T02:26:43.040Z,17.34
2018-07-22T02:29:16.626Z,17.27
2018-07-22T02:31:49.792Z,17.18
2018-07-22T02:34:22.977Z,17.13
2018-07-22T02:36:57.460Z,17.07
2018-07-22T02:39:32.476Z,17.09
2018-07-22T02:42:07.669Z,16.99
2018-07-22T02:44:40.524Z,16.99
2018-07-22T02:47:17.143Z,17.02
2018-07-22T02:49:58.257Z,17.01
2018-07-22T02:52:30.717Z,16.90
2018-07-22T02:55:04.822Z,16.85
2018-07-22T02:57:40.420Z,16.86
2018-07-22T03:00:16.585Z,16.84
2018-07-22T03:02:49.889Z,16.86
2018-07-22T03:05:22.438Z,16.85
2018-07-22T03:07:56.240Z,16.75
2018-07-22T03:10:28.861Z,16.66
2018-07-22T03:13:04.482Z,16.63
2018-07-22T03:15:38.314Z,16.57
2018-07-22T03:18:14.622Z,16.50
2018-07-22T03:20:47.784Z,16.44
2018-07-22T03:23:26.962Z,16.32
2018-07-22T03:26:00.169Z,16.20
2018-07-22T03:28:33.909Z,16.09
2018-07-22T03:31:14.964Z,16.04
2018-07-22T03:33:50.847Z,16.07
2018-07-22T03:36:25.729Z,16.09
2018-07-22T03:38:59.627Z,16.20
2018-07-22T03:41:35.816Z,16.23
2018-07-22T03:44:09.212Z,16.21
2018-07-22T03:46:43.922Z,16.18
2018-07-22T03:49:16.903Z,16.24
2018-07-22T03:51:49.789Z,16.33
2018-07-22T03:54:25.685Z,16.28
2018-07-22T03:56:58.842Z,16.25
2018-07-22T03:59:33.263Z,16.22
2018-07-22T04:02:08.392Z,16.17
2018-07-22T04:04:40.953Z,16.10
2018-07-22T04:07:14.063Z,16.00
2018-07-22T04:09:54.195Z,16.03
2018-07-22T04:12:27.470Z,16.12
2018-07-22T04:15:03.129Z,16.20
2018-07-22T04:17:37.591Z,16.34
2018-07-22T04:20:12.956Z,16.34
2018-07-22T04:22:45.999Z,16.29
2018-07-22T04:25:19.738Z,16.26
2018-07-22T04:27:54.924Z,16.21
2018-07-22T04:30:29.541Z,16.21
2018-07-22T04:33:02.970Z,16.20
2018-07-22T04:35:36.567Z,16.25
2018-07-22T04:38:09.389Z,16.31
2018-07-22T04:40:41.911Z,16.35
2018-07-22T04:43:16.924Z,16.41
2018-07-22T04:45:50.652Z,16.44
2018-07-22T04:48:23.992Z,16.43
2018-07-22T04:50:57.523Z,16.46
2018-07-22T04:53:31.730Z,16.45
2018-07-22T04:56:06.408Z,16.48
2018-07-22T04:58:38.816Z,16.55
2018-07-22T05:01:15.584Z,16.57
2018-07-22T05:03:48.846Z,16.62
2018-07-22T05:06:24.177Z,16.67
2018-07-22T05:08:56.978Z,16.70
2018-07-22T05:11:29.532Z,16.74
2018-07-22T05:14:04.680Z,16.78
2018-07-22T05:16:39.109Z,16.84
2018-07-22T05:19:13.270Z,16.87
2018-07-22T05:21:45.667Z,16.91
2018-07-22T05:24:19.507Z,16.94
2018-07-22T05:26:55.127Z,16.97
2018-07-22T05:29:28.162Z,17.01
2018-07-22T05:32:01.972Z,17.05
2018-07-22T05:34:35.418Z,17.07
2018-07-22T05:37:08.588Z,17.14
2018-07-22T05:39:41.700Z,17.17
2018-07-22T05:42:15.864Z,17.22
2018-07-22T05:44:48.744Z,17.27
2018-07-22T05:47:21.997Z,17.35
2018-07-22T05:49:55.028Z,17.41
2018-07-22T05:52:27.552Z,17.43
2018-07-22T05:55:01.296Z,17.47
2018-07-22T05:57:35.463Z,17.47
2018-07-22T06:00:08.341Z,17.40
2018-07-22T06:02:42.500Z,17.41
2018-07-22T06:05:17.260Z,17.48
2018-07-22T06:07:50.612Z,17.55
2018-07-22T06:10:24.429Z,17.55
2018-07-22T06:13:02.781Z,17.68
2018-07-22T06:15:48.793Z,17.80
2018-07-22T06:18:31.225Z,17.89
2018-07-22T06:21:13.955Z,17.92
2018-07-22T06:24:01.759Z,17.86
2018-07-22T06:26:38.733Z,17.93
2018-07-22T06:29:14.904Z,18.01
2018-07-22T06:31:57.891Z,18.04
2018-07-22T06:34:31.006Z,18.09
2018-07-22T06:37:06.348Z,18.21
2018-07-22T06:39:44.495Z,18.31
2018-07-22T06:42:20.164Z,18.40
2018-07-22T06:44:56.070Z,18.55
2018-07-22T06:47:28.584Z,18.63
2018-07-22T06:50:03.342Z,18.51
2018-07-22T06:52:36.909Z,18.64
2018-07-22T06:55:11.008Z,18.66
2018-07-22T06:57:44.525Z,18.74
2018-07-22T07:00:19.428Z,18.85
2018-07-22T07:02:52.831Z,18.93
2018-07-22T07:05:25.931Z,18.90
2018-07-22T07:07:59.853Z,18.98
2018-07-22T07:10:33.932Z,19.15
2018-07-22T07:13:06.660Z,19.04
2018-07-22T07:15:40.686Z,19.03
2018-07-22T07:18:14.555Z,19.13
2018-07-22T07:20:48.021Z,19.30
2018-07-22T07:23:21.854Z,19.37
2018-07-22T07:25:55.793Z,19.47
2018-07-22T07:28:29.978Z,19.44
2018-07-22T07:31:06.385Z,19.56
2018-07-22T07:33:41.786Z,19.65
2018-07-22T07:36:15.172Z,19.78
2018-07-22T07:38:50.248Z,19.89
2018-07-22T07:41:29.968Z,19.97
2018-07-22T07:44:06.213Z,20.09
2018-07-22T07:46:39.877Z,20.06
2018-07-22T07:49:14.753Z,20.35
2018-07-22T07:51:49.116Z,21.13
2018-07-22T07:54:22.653Z,22.32
2018-07-22T07:56:56.510Z,22.47
2018-07-22T07:59:30.177Z,22.80
2018-07-22T08:02:03.379Z,22.20
2018-07-22T08:04:38.713Z,22.16
2018-07-22T08:07:11.337Z,21.84
2018-07-22T08:09:46.804Z,22.48
2018-07-22T08:12:21.621Z,22.51
2018-07-22T08:14:54.989Z,23.35
2018-07-22T08:17:27.801Z,24.11
2018-07-22T08:20:00.637Z,24.33
2018-07-22T08:22:35.112Z,23.53
2018-07-22T08:25:11.765Z,23.21
2018-07-22T08:27:44.266Z,24.14
2018-07-22T08:30:18.109Z,24.30
2018-07-22T08:32:52.857Z,24.90
2018-07-22T08:35:25.455Z,24.93
2018-07-22T08:37:59.052Z,25.00
2018-07-22T08:40:33.428Z,25.88
2018-07-22T08:43:08.240Z,25.29
2018-07-22T08:45:42.800Z,25.28
2018-07-22T08:48:17.426Z,25.38
2018-07-22T08:50:50.691Z,24.81
2018-07-22T08:53:26.372Z,24.95
2018-07-22T08:55:59.382Z,25.41
2018-07-22T08:58:32.855Z,25.75
2018-07-22T09:01:07.308Z,26.13
2018-07-22T09:03:40.439Z,26.34
2018-07-22T09:06:22.351Z,26.52
2018-07-22T09:08:57.371Z,26.54
2018-07-22T09:11:31.485Z,26.92
2018-07-22T09:14:04.809Z,27.22
2018-07-22T09:16:39.313Z,27.25
2018-07-22T09:19:13.179Z,27.27
2018-07-22T09:21:48.075Z,27.10
2018-07-22T09:24:20.917Z,27.03
2018-07-22T09:26:55.978Z,27.41
2018-07-22T09:29:28.834Z,27.17
2018-07-22T09:32:02.139Z,27.50
2018-07-22T09:34:36.968Z,27.38
2018-07-22T09:37:09.531Z,27.48
2018-07-22T09:39:43.867Z,28.18
2018-07-22T09:42:17.928Z,28.44
2018-07-22T09:44:54.125Z,28.22
2018-07-22T09:47:27.182Z,28.11
2018-07-22T09:50:00.666Z,28.15
2018-07-22T09:52:34.133Z,27.71
2018-07-22T09:55:07.947Z,27.48
2018-07-22T09:57:40.830Z,27.93
2018-07-22T10:00:21.644Z,28.40
2018-07-22T10:02:54.286Z,28.79
2018-07-22T10:05:29.808Z,28.55
2018-07-22T10:08:03.064Z,27.93
2018-07-22T10:10:40.289Z,27.80
2018-07-22T10:13:14.366Z,28.12
2018-07-22T10:15:48.365Z,28.33
2018-07-22T10:18:20.780Z,28.73
2018-07-22T10:20:54.419Z,28.95
2018-07-22T10:23:27.369Z,28.39
2018-07-22T10:26:00.705Z,28.31
2018-07-22T10:28:36.536Z,28.89
2018-07-22T10:31:14.091Z,28.70
2018-07-22T10:33:50.128Z,28.50
2018-07-22T10:36:23.484Z,28.73
2018-07-22T10:38:57.264Z,28.89
2018-07-22T10:41:29.846Z,28.96
2018-07-22T10:44:03.058Z,29.37
2018-07-22T10:46:35.992Z,29.52
2018-07-22T10:49:10.000Z,29.63
2018-07-22T10:51:45.317Z,29.89
2018-07-22T10:54:19.098Z,29.63
2018-07-22T10:56:51.871Z,29.78
2018-07-22T10:59:25.769Z,29.97
2018-07-22T11:01:59.512Z,30.16
2018-07-22T11:04:33.052Z,29.65
2018-07-22T11:07:06.755Z,29.15
2018-07-22T11:09:41.788Z,29.05
2018-07-22T11:12:19.036Z,28.88
2018-07-22T11:14:53.898Z,28.80
2018-07-22T11:17:27.701Z,29.02
2018-07-22T11:20:01.403Z,29.22
2018-07-22T11:22:37.257Z,29.20
2018-07-22T11:25:11.355Z,29.21
2018-07-22T11:27:45.085Z,29.38
2018-07-22T11:30:17.293Z,29.71
2018-07-22T11:32:53.557Z,30.13
2018-07-22T11:35:28.233Z,30.48
2018-07-22T11:38:01.901Z,30.91
2018-07-22T11:40:39.484Z,30.84
2018-07-22T11:43:15.409Z,30.56
2018-07-22T11:45:49.954Z,30.36
2018-07-22T11:48:23.881Z,30.21
2018-07-22T11:50:56.329Z,29.95
2018-07-22T11:53:31.972Z,29.93
2018-07-22T11:56:04.817Z,30.28
2018-07-22T11:58:37.953Z,30.65
2018-07-22T12:01:12.792Z,31.21
2018-07-22T12:03:45.820Z,31.56
2018-07-22T12:06:20.214Z,31.34
2018-07-22T12:08:56.237Z,31.42
2018-07-22T12:11:29.014Z,31.04
2018-07-22T12:14:02.167Z,30.73
2018-07-22T12:16:35.933Z,30.72
2018-07-22T12:19:09.440Z,30.52
2018-07-22T12:21:41.989Z,30.57
2018-07-22T12:24:16.741Z,30.56
2018-07-22T12:26:50.069Z,30.43
2018-07-22T12:29:29.582Z,30.32
2018-07-22T12:32:02.248Z,30.31
2018-07-22T12:34:35.964Z,30.65
2018-07-22T12:37:13.088Z,31.09
2018-07-22T12:39:47.421Z,31.16
2018-07-22T12:42:21.520Z,30.99
2018-07-22T12:44:54.846Z,30.98
2018-07-22T12:47:30.465Z,31.25
2018-07-22T12:50:03.821Z,31.62
2018-07-22T12:52:37.415Z,31.59
2018-07-22T12:55:10.052Z,31.75
2018-07-22T12:57:43.558Z,31.93
2018-07-22T13:00:18.969Z,31.67
2018-07-22T13:02:52.527Z,31.60
2018-07-22T13:05:27.394Z,31.88
2018-07-22T13:08:01.889Z,32.20
2018-07-22T13:10:34.915Z,32.33
2018-07-22T13:13:12.635Z,31.90
2018-07-22T13:15:46.530Z,31.84
2018-07-22T13:18:21.105Z,32.01
2018-07-22T13:20:55.636Z,31.42
2018-07-22T13:23:28.773Z,31.28
2018-07-22T13:26:02.283Z,30.78
2018-07-22T13:28:35.530Z,30.97
2018-07-22T13:31:08.306Z,30.48
2018-07-22T13:33:45.561Z,30.35
2018-07-22T13:36:18.476Z,31.11
2018-07-22T13:38:54.157Z,31.88
2018-07-22T13:41:30.047Z,32.39
2018-07-22T13:44:05.466Z,32.37
2018-07-22T13:46:39.112Z,32.97
2018-07-22T13:49:14.247Z,33.30
2018-07-22T13:51:46.856Z,33.71
2018-07-22T13:54:19.469Z,32.97
2018-07-22T13:56:54.328Z,32.87
2018-07-22T13:59:27.511Z,32.80
2018-07-22T14:02:01.075Z,32.74
2018-07-22T14:04:35.955Z,32.32
2018-07-22T14:07:13.679Z,32.21
2018-07-22T14:09:50.460Z,31.84
2018-07-22T14:12:26.415Z,31.56
2018-07-22T14:15:07.920Z,31.37
2018-07-22T14:17:44.102Z,31.87
2018-07-22T14:20:21.267Z,32.47
2018-07-22T14:22:54.651Z,32.48
2018-07-22T14:25:31.140Z,32.48
2018-07-22T14:28:08.130Z,32.52
2018-07-22T14:30:40.646Z,31.71
2018-07-22T14:33:14.004Z,31.59
2018-07-22T14:35:53.437Z,31.73
2018-07-22T14:38:27.503Z,32.14
2018-07-22T14:41:05.626Z,31.89
2018-07-22T14:43:39.259Z,31.91
2018-07-22T14:46:14.337Z,31.81
2018-07-22T14:48:47.999Z,31.45
2018-07-22T14:51:26.041Z,31.32
2018-07-22T14:54:00.571Z,31.81
2018-07-22T14:56:33.905Z,31.59
2018-07-22T14:59:07.831Z,31.87
2018-07-22T15:01:44.023Z,31.98
2018-07-22T15:04:18.294Z,32.14
2018-07-22T15:06:51.071Z,32.29
2018-07-22T15:09:23.868Z,32.17
2018-07-22T15:11:57.899Z,31.81
2018-07-22T15:14:31.277Z,31.79
2018-07-22T15:17:04.092Z,32.07
2018-07-22T15:19:39.703Z,31.97
2018-07-22T15:22:14.139Z,31.61
2018-07-22T15:24:47.646Z,31.50
2018-07-22T15:27:20.989Z,31.62
2018-07-22T15:29:53.609Z,30.87
2018-07-22T15:32:27.313Z,31.09
2018-07-22T15:35:02.480Z,30.79
2018-07-22T15:37:39.137Z,30.57
2018-07-22T15:40:12.593Z,30.56
2018-07-22T15:42:45.737Z,30.57
2018-07-22T15:45:21.129Z,29.99
2018-07-22T15:47:57.940Z,29.75
2018-07-22T15:50:32.476Z,29.61
2018-07-22T15:53:07.158Z,29.46
2018-07-22T15:55:40.532Z,29.13
2018-07-22T15:58:13.549Z,29.08
2018-07-22T16:00:48.338Z,28.81
2018-07-22T16:03:22.100Z,28.89
2018-07-22T16:05:59.313Z,28.79
2018-07-22T16:08:32.199Z,28.47
2018-07-22T16:11:06.435Z,28.25
2018-07-22T16:13:42.789Z,28.10
2018-07-22T16:16:18.268Z,28.11
2018-07-22T16:18:53.652Z,28.11
2018-07-22T16:21:29.917Z,28.09
2018-07-22T16:24:02.779Z,28.01
2018-07-22T16:26:37.213Z,27.83
2018-07-22T16:29:09.935Z,27.76
2018-07-22T16:31:42.638Z,27.68
2018-07-22T16:34:23.606Z,27.67
2018-07-22T16:36:57.064Z,27.65
2018-07-22T16:39:30.603Z,27.66
2018-07-22T16:42:06.221Z,27.65
2018-07-22T16:44:39.698Z,27.66
2018-07-22T16:47:12.255Z,27.65
2018-07-22T16:49:48.702Z,27.65
2018-07-22T16:52:21.993Z,27.71
2018-07-22T16:54:54.997Z,27.80
2018-07-22T16:57:29.484Z,27.83
2018-07-22T17:00:03.481Z,27.79
2018-07-22T17:02:35.968Z,27.77
2018-07-22T17:05:10.218Z,27.94
2018-07-22T17:07:47.368Z,28.07
2018-07-22T17:10:21.350Z,28.14
2018-07-22T17:12:56.571Z,28.10
2018-07-22T17:15:29.277Z,28.07
2018-07-22T17:18:01.869Z,27.99
2018-07-22T17:20:37.322Z,27.92
2018-07-22T17:23:11.208Z,27.83
2018-07-22T17:25:45.201Z,27.75
2018-07-22T17:28:17.889Z,27.74
2018-07-22T17:31:20.614Z,27.71
2018-07-22T17:33:57.540Z,27.70
2018-07-22T17:36:33.042Z,27.66
2018-07-22T17:39:15.184Z,27.59
2018-07-22T17:41:53.355Z,27.53
2018-07-22T17:44:28.029Z,27.40
2018-07-22T17:47:02.062Z,27.33
2018-07-22T17:49:42.970Z,27.34
2018-07-22T17:52:20.430Z,27.21
2018-07-22T17:54:56.384Z,27.14
2018-07-22T17:57:29.741Z,27.12
2018-07-22T18:00:04.878Z,27.07
2018-07-22T18:02:50.005Z,26.97
2018-07-22T18:05:27.750Z,26.87
2018-07-22T18:08:03.189Z,26.80
2018-07-22T18:10:36.144Z,26.74
2018-07-22T18:13:25.632Z,26.65
2018-07-22T18:15:59.308Z,26.58
2018-07-22T18:18:34.207Z,26.51
2018-07-22T18:21:11.223Z,26.44
2018-07-22T18:23:48.111Z,26.38
2018-07-22T18:26:22.892Z,26.33
2018-07-22T18:28:58.129Z,26.28
2018-07-22T18:31:35.478Z,26.24
2018-07-22T18:34:09.597Z,26.24
2018-07-22T18:36:47.114Z,26.16
2018-07-22T18:39:21.150Z,26.10
2018-07-22T18:41:53.699Z,26.03
2018-07-22T18:44:32.577Z,25.97
2018-07-22T18:47:06.387Z,25.92
2018-07-22T18:49:40.443Z,25.94
2018-07-22T18:52:14.895Z,25.89
2018-07-22T18:54:55.484Z,25.85
2018-07-22T18:57:30.344Z,25.82
2018-07-22T19:00:06.818Z,25.80
2018-07-22T19:02:41.321Z,25.66
2018-07-22T19:05:13.872Z,25.31
2018-07-22T19:07:50.681Z,24.98
2018-07-22T19:10:25.293Z,24.73
2018-07-22T19:13:02.927Z,24.61
2018-07-22T19:15:41.037Z,24.53
2018-07-22T19:18:19.640Z,24.47
2018-07-22T19:20:57.115Z,24.43
2018-07-22T19:23:31.264Z,24.39
2018-07-22T19:26:12.317Z,24.36
2018-07-22T19:28:46.881Z,24.30
2018-07-22T19:31:20.859Z,24.27
2018-07-22T19:33:57.587Z,24.24
2018-07-22T19:36:41.306Z,24.30
2018-07-22T19:39:16.312Z,24.25
2018-07-22T19:41:56.531Z,24.20
2018-07-22T19:44:32.667Z,24.23
2018-07-22T19:47:09.869Z,24.13
2018-07-22T19:49:45.105Z,24.01
2018-07-22T19:52:18.745Z,23.91
2018-07-22T19:54:54.354Z,23.78
2018-07-22T19:57:28.961Z,23.64
2018-07-22T20:00:05.044Z,23.48
2018-07-22T20:02:40.544Z,23.24
2018-07-22T20:05:15.516Z,23.07
2018-07-22T20:07:53.438Z,22.90
2018-07-22T20:10:30.158Z,22.68
2018-07-22T20:13:04.365Z,22.51
2018-07-22T20:15:38.905Z,22.48
2018-07-22T20:18:18.861Z,22.34
2018-07-22T20:20:53.965Z,22.17
2018-07-22T20:23:32.983Z,21.98
2018-07-22T20:26:14.293Z,21.85
2018-07-22T20:28:47.127Z,21.73
2018-07-22T20:31:35.098Z,21.62
2018-07-22T20:34:09.424Z,21.45
2018-07-22T20:36:44.880Z,21.34
2018-07-22T20:39:17.507Z,21.23
2018-07-22T20:41:50.555Z,21.09
2018-07-22T20:44:25.662Z,21.03
2018-07-22T20:46:59.846Z,21.01
2018-07-22T20:49:33.647Z,20.94
2018-07-22T20:52:07.925Z,20.88
2018-07-22T20:54:43.790Z,20.90
2018-07-22T20:57:19.881Z,20.88
2018-07-22T21:00:03.725Z,20.79
2018-07-22T21:02:37.594Z,20.70
2018-07-22T21:05:31.060Z,20.64
2018-07-22T21:08:06.687Z,20.51
2018-07-22T21:10:44.584Z,20.37
2018-07-22T21:13:29.363Z,20.25
2018-07-22T21:16:05.733Z,20.13
2018-07-22T21:18:42.874Z,19.98
2018-07-22T21:21:16.311Z,19.84
2018-07-22T21:23:48.964Z,19.72
2018-07-22T21:26:24.966Z,19.62
2018-07-22T21:29:11.069Z,19.59
2018-07-22T21:31:45.001Z,19.54
2018-07-22T21:34:23.056Z,19.45
2018-07-22T21:36:57.762Z,19.38
2018-07-22T21:39:30.965Z,19.26
2018-07-22T21:42:06.272Z,19.15
2018-07-22T21:44:41.685Z,19.06
2018-07-22T21:47:15.609Z,19.05
2018-07-22T21:49:49.408Z,19.03
2018-07-22T21:52:26.914Z,19.01
2018-07-22T21:55:01.835Z,19.04
2018-07-22T21:57:36.757Z,19.12
2018-07-22T22:00:31.274Z,19.31
2018-07-22T22:03:04.293Z,19.36
2018-07-22T22:05:43.568Z,19.31
2018-07-22T22:08:18.974Z,19.44
2018-07-22T22:10:52.750Z,19.49
2018-07-22T22:13:30.494Z,19.47
2018-07-22T22:16:02.954Z,19.40
2018-07-22T22:18:37.933Z,19.37
2018-07-22T22:21:11.976Z,19.34
2018-07-22T22:23:45.168Z,19.21
2018-07-22T22:26:18.671Z,19.02
2018-07-22T22:28:51.708Z,18.83
2018-07-22T22:31:24.603Z,18.66
2018-07-22T22:33:58.185Z,18.48
2018-07-22T22:36:31.225Z,18.34
2018-07-22T22:39:08.112Z,18.32
2018-07-22T22:41:43.419Z,18.25
2018-07-22T22:44:17.934Z,18.13
2018-07-22T22:46:50.815Z,17.98
2018-07-22T22:49:27.456Z,17.95
2018-07-22T22:52:02.015Z,17.85
2018-07-22T22:54:35.800Z,17.77
2018-07-22T22:57:09.248Z,17.70
2018-07-22T22:59:44.395Z,17.68
2018-07-22T23:02:19.559Z,17.58
2018-07-22T23:04:52.085Z,17.49
2018-07-22T23:07:26.786Z,17.45
2018-07-22T23:10:01.196Z,17.43
2018-07-22T23:12:33.725Z,17.33
2018-07-22T23:15:07.776Z,17.19
2018-07-22T23:17:42.572Z,17.08
2018-07-22T23:20:15.411Z,16.97
2018-07-22T23:22:48.916Z,16.89
2018-07-22T23:25:22.743Z,16.83
2018-07-22T23:27:55.347Z,16.74
2018-07-22T23:30:28.703Z,16.67
2018-07-22T23:33:03.155Z,16.59
2018-07-22T23:35:35.752Z,16.49
2018-07-22T23:38:08.409Z,16.45
2018-07-22T23:40:41.945Z,16.42
2018-07-22T23:43:14.800Z,16.30
2018-07-22T23:45:47.524Z,16.19
2018-07-22T23:48:20.516Z,16.18
2018-07-22T23:50:54.132Z,16.20
2018-07-22T23:53:26.576Z,16.21
2018-07-22T23:56:00.528Z,16.17
2018-07-22T23:58:33.871Z,16.04
